Commit 7146df51 authored by P41842 (Petz Phillip)'s avatar P41842 (Petz Phillip) 💬
Browse files

Added more files as Testdata

parent 8b59c68f
LAT;;;;;51.3834;51.3834;51.3834;51.3834;51.3834;51.3834
LON;;;;;-110.585;-110.585;-110.585;-110.585;-110.585;-110.585
ASL;;;;;791.000;791.000;791.000;791.000;791.000;791.000
CITY;;;;;Excel;Excel;Excel;Excel;Excel;Excel
DOMAIN;;;;;NEMSGLOBAL;NEMSGLOBAL;NEMSGLOBAL;NEMSGLOBAL;NEMSGLOBAL;NEMSGLOBAL
LEVEL;;;;;2 m above gnd;2 m above gnd;MSL;sfc;10 m above gnd;10 m above gnd
NAME;;;;;Temperature;Relative Humidity;Mean Sea Level Pressure;Total Precipitation (high resolution);Wind Speed;Wind Direction
UNIT;;;;;°C;%;hPa;mm;km/h;°
AGGREGATION;;;;;;;;;;
UTC_OFFSET;;;;;-6;-6;-6;-6;-6;-6
Year;Month;Day;Hour;Minute;Temperature [2 m above gnd];Relative Humidity [2 m above gnd];Mean Sea Level Pressure [MSL];Total Precipitation (high resolution) [sfc];Wind Speed [10 m above gnd];Wind Direction [10 m above gnd]
2019;03;05;00;00;-20.00;82.00;1036.90;0.00;21.41;289.65
2019;03;05;01;00;-20.46;81.00;1036.70;0.00;20.72;287.18
2019;03;05;02;00;-20.86;81.00;1036.80;0.00;20.97;285.95
2019;03;05;03;00;-21.18;81.00;1037.10;0.00;21.18;287.82
2019;03;05;04;00;-21.16;81.00;1037.00;0.00;21.18;287.82
2019;03;05;05;00;-20.22;82.00;1036.30;0.00;21.87;290.22
2019;03;05;06;00;-22.61;82.00;1037.70;0.00;19.88;275.19
2019;03;05;07;00;-22.07;83.00;1037.40;0.00;20.70;283.07
2019;03;05;08;00;-20.07;87.00;1036.80;0.00;21.46;292.69
2019;03;05;09;00;-17.81;90.00;1035.80;0.00;24.39;301.11
2019;03;05;10;00;-15.65;91.00;1035.00;0.00;27.16;308.54
2019;03;05;11;00;-14.15;90.00;1034.40;0.00;28.26;314.48
2019;03;05;12;00;-13.08;89.00;1033.90;0.00;28.58;319.09
2019;03;05;13;00;-12.35;88.00;1033.40;0.00;28.88;324.13
2019;03;05;14;00;-11.92;87.00;1032.70;0.00;28.86;326.71
2019;03;05;15;00;-11.66;87.00;1032.60;0.00;27.36;327.36
2019;03;05;16;00;-11.55;88.00;1032.30;0.00;25.87;328.08
2019;03;05;17;00;-11.66;88.00;1032.20;0.00;24.48;331.93
2019;03;05;18;00;-12.02;87.00;1032.30;0.00;22.74;336.68
2019;03;05;19;00;-12.66;88.00;1032.50;0.00;20.49;341.57
2019;03;05;20;00;-13.16;88.00;1032.50;0.00;18.16;346.24
2019;03;05;21;00;-13.58;88.00;1032.60;0.00;17.11;351.53
2019;03;05;22;00;-13.89;88.00;1032.90;0.00;15.16;355.91
2019;03;05;23;00;-14.11;88.00;1033.30;0.00;12.62;356.73
2019;03;06;00;00;-14.30;88.00;1033.30;0.00;10.82;356.19
2019;03;06;01;00;-14.49;88.00;1032.90;0.00;9.72;360.00
2019;03;06;02;00;-14.61;87.00;1033.40;0.00;8.67;4.76
2019;03;06;03;00;-14.77;87.00;1033.50;0.00;6.99;11.89
2019;03;06;04;00;-14.98;87.00;1032.80;0.00;5.63;26.57
2019;03;06;05;00;-15.21;87.00;1032.30;0.00;6.19;54.46
2019;03;06;06;00;-20.83;84.00;1034.10;0.00;9.34;62.45
2019;03;06;07;00;-21.11;83.00;1034.60;0.00;9.96;77.47
2019;03;06;08;00;-21.29;83.00;1034.40;0.00;11.16;90.00
2019;03;06;09;00;-19.88;85.00;1033.90;0.00;12.07;100.30
2019;03;06;10;00;-17.44;86.00;1032.90;0.00;15.51;111.80
2019;03;06;11;00;-15.54;86.00;1031.80;0.00;18.58;121.53
2019;03;06;12;00;-14.21;86.00;1030.90;0.00;21.47;124.76
2019;03;06;13;00;-13.41;84.00;1029.90;0.00;25.28;125.73
2019;03;06;14;00;-12.69;84.00;1029.10;0.00;28.46;124.70
2019;03;06;15;00;-12.39;83.00;1028.00;0.00;31.97;125.84
2019;03;06;16;00;-12.24;85.00;1027.10;0.00;33.70;126.75
2019;03;06;17;00;-12.18;86.00;1025.90;0.00;34.70;126.99
2019;03;06;18;00;-12.25;86.00;1025.10;0.00;35.57;125.94
2019;03;06;19;00;-12.64;87.00;1024.00;0.00;35.57;125.94
2019;03;06;20;00;-13.47;87.00;1023.50;0.00;32.65;124.22
2019;03;06;21;00;-13.64;87.00;1022.80;0.00;33.15;124.38
2019;03;06;22;00;-13.54;87.00;1022.20;0.00;34.20;126.87
2019;03;06;23;00;-13.41;87.00;1021.10;0.00;34.48;130.34
2019;03;07;00;00;-13.51;87.00;1019.90;0.00;33.37;132.81
2019;03;07;01;00;-13.86;87.00;1018.80;0.00;31.31;134.53
2019;03;07;02;00;-14.17;87.00;1018.00;0.00;29.53;135.00
2019;03;07;03;00;-13.73;88.00;1017.00;0.00;28.51;135.00
2019;03;07;04;00;-13.28;87.00;1015.60;0.00;29.02;136.01
2019;03;07;05;00;-13.97;87.00;1014.90;0.00;28.53;137.05
2019;03;07;06;00;-18.45;83.00;1017.30;0.00;26.49;137.20
2019;03;07;07;00;-18.09;83.00;1016.50;0.00;26.23;136.67
2019;03;07;08;00;-17.75;82.00;1015.90;0.00;25.98;137.25
2019;03;07;09;00;-17.02;82.00;1014.70;0.00;26.01;138.37
2019;03;07;10;00;-15.93;82.00;1013.90;0.00;25.36;141.34
2019;03;07;11;00;-14.68;81.00;1013.40;0.00;23.28;148.28
2019;03;07;12;00;-13.38;82.00;1012.40;0.00;20.19;148.86
2019;03;07;13;00;-12.04;81.00;1011.40;0.00;17.60;149.24
2019;03;07;14;00;-10.95;83.00;1010.80;0.00;15.99;148.82
2019;03;07;15;00;-9.99;85.00;1010.10;0.00;15.14;151.61
2019;03;07;16;00;-9.27;87.00;1009.60;0.00;14.92;160.25
2019;03;07;17;00;-8.84;87.00;1009.10;0.00;15.58;173.37
2019;03;07;18;00;-8.46;90.00;1009.00;0.00;14.76;180.00
2019;03;07;19;00;-8.49;93.00;1008.50;0.00;12.26;176.63
2019;03;07;20;00;-9.01;94.00;1008.10;0.00;9.50;155.38
2019;03;07;21;00;-9.65;95.00;1008.00;0.00;7.64;135.00
2019;03;07;22;00;-10.48;94.00;1007.90;0.00;5.50;121.61
2019;03;07;23;00;-10.92;93.00;1008.10;0.00;1.53;135.00
2019;03;08;00;00;-11.00;92.00;1008.30;0.00;5.04;270.00
2019;03;08;01;00;-10.54;91.00;1008.40;0.00;13.44;277.70
2019;03;08;02;00;-10.76;87.00;1008.90;0.00;19.13;281.94
2019;03;08;03;00;-12.98;85.00;1009.80;0.00;20.99;275.91
2019;03;08;04;00;-14.81;85.00;1010.20;0.00;19.09;267.84
2019;03;08;05;00;-15.88;85.00;1010.50;0.00;16.77;255.07
2019;03;08;06;00;-15.88;85.00;1011.80;0.00;17.16;260.34
2019;03;08;07;00;-16.86;85.00;1012.40;0.00;16.77;255.07
2019;03;08;08;00;-17.04;85.00;1012.60;0.00;16.52;253.54
2019;03;08;09;00;-14.64;86.00;1012.20;0.00;17.73;257.09
2019;03;08;10;00;-10.68;87.00;1010.80;0.00;22.33;268.15
2019;03;08;11;00;-9.23;84.00;1010.40;0.00;27.40;273.01
2019;03;08;12;00;-7.98;84.00;1010.00;0.00;31.06;274.65
2019;03;08;13;00;-7.05;84.00;1009.80;0.00;32.79;278.84
2019;03;08;14;00;-6.47;82.00;1009.50;0.00;33.97;282.86
2019;03;08;15;00;-6.22;81.00;1009.30;0.00;34.84;288.06
2019;03;08;16;00;-6.33;82.00;1009.20;0.00;33.96;291.12
2019;03;08;17;00;-6.31;83.00;1008.80;0.00;32.69;295.44
2019;03;08;18;00;-6.59;82.00;1009.30;0.00;29.48;298.44
2019;03;08;19;00;-7.19;84.00;1009.90;0.00;23.71;300.07
2019;03;08;20;00;-7.91;87.00;1010.60;0.00;19.65;298.44
2019;03;08;21;00;-8.93;88.00;1011.40;0.00;18.53;294.08
2019;03;08;22;00;-9.14;88.00;1012.10;0.00;19.47;289.44
2019;03;08;23;00;-8.49;87.00;1012.50;0.00;21.97;288.14
2019;03;09;00;00;-8.12;87.00;1012.60;0.00;23.57;288.71
2019;03;09;01;00;-7.86;89.00;1012.70;0.00;25.74;290.46
2019;03;09;02;00;-7.99;90.00;1013.00;0.00;25.01;292.87
2019;03;09;03;00;-9.49;90.00;1013.60;0.00;23.03;294.96
2019;03;09;04;00;-10.68;90.00;1014.40;0.00;21.09;297.44
2019;03;09;05;00;-11.39;90.00;1014.70;0.00;19.02;299.48
2019;03;09;06;00;-12.99;88.00;1017.20;0.00;16.42;285.26
2019;03;09;07;00;-12.99;89.00;1017.60;0.00;15.75;280.54
2019;03;09;08;00;-13.06;89.00;1017.90;0.00;16.39;278.84
2019;03;09;09;00;-11.83;89.00;1018.10;0.00;16.42;285.26
2019;03;09;10;00;-9.91;90.00;1017.70;0.00;16.45;293.20
2019;03;09;11;00;-8.61;89.00;1018.10;0.00;18.67;309.52
2019;03;09;12;00;-7.99;89.00;1017.80;0.00;20.42;319.29
2019;03;09;13;00;-7.40;88.00;1018.00;0.00;21.37;327.38
2019;03;09;14;00;-7.21;87.00;1018.50;0.00;20.32;330.26
2019;03;09;15;00;-7.16;88.00;1018.50;0.00;19.02;330.52
2019;03;09;16;00;-7.21;89.00;1018.60;0.00;17.91;329.83
2019;03;09;17;00;-7.34;90.00;1018.60;0.00;17.48;327.62
2019;03;09;18;00;-7.64;91.00;1018.90;0.00;15.88;327.03
2019;03;09;19;00;-8.20;91.00;1019.50;0.00;14.88;327.85
2019;03;09;20;00;-8.64;91.00;1020.20;0.00;13.40;329.30
2019;03;09;21;00;-9.00;91.00;1020.60;0.00;12.59;329.04
2019;03;09;22;00;-9.28;90.00;1021.10;0.00;11.30;329.35
2019;03;09;23;00;-9.54;89.00;1021.50;0.00;10.50;329.04
2019;03;10;00;00;-9.73;88.00;1022.10;0.00;8.79;325.01
2019;03;10;01;00;-9.95;87.00;1022.30;0.00;7.15;319.09
2019;03;10;02;00;-10.21;87.00;1022.40;0.00;6.70;306.25
2019;03;10;03;00;-10.82;89.00;1022.50;0.00;6.12;298.07
2019;03;10;04;00;-11.40;94.00;1022.70;0.00;5.35;289.65
2019;03;10;05;00;-11.82;96.00;1022.80;0.00;5.09;278.13
2019;03;10;06;00;-10.26;93.00;1023.00;0.00;5.48;246.80
2019;03;10;07;00;-10.43;95.00;1023.60;0.00;6.19;234.46
2019;03;10;08;00;-10.56;95.00;1024.00;0.00;7.13;225.00
2019;03;10;09;00;-10.33;94.00;1024.10;0.00;9.00;216.87
2019;03;10;10;00;-9.82;95.00;1024.60;0.00;11.30;210.65
2019;03;10;11;00;-9.17;93.00;1024.50;0.00;13.85;204.57
2019;03;10;12;00;-8.69;92.00;1024.40;0.00;16.18;200.85
2019;03;10;13;00;-8.17;94.00;1024.00;0.00;18.90;197.74
2019;03;10;14;00;-7.44;93.00;1023.40;0.00;20.97;195.95
2019;03;10;15;00;-6.73;92.00;1022.90;0.00;23.14;195.33
2019;03;10;16;00;-6.08;93.00;1022.20;0.00;23.59;195.95
2019;03;10;17;00;-5.53;94.00;1021.60;0.00;24.28;195.48
2019;03;10;18;00;-5.17;94.00;1021.30;0.00;24.10;193.83
2019;03;10;19;00;-5.23;94.00;1020.60;0.00;23.09;190.78
2019;03;10;20;00;-5.49;95.00;1020.70;0.00;22.10;186.55
2019;03;10;21;00;-5.66;96.00;1020.20;0.00;22.10;186.55
2019;03;10;22;00;-5.84;95.00;1020.30;0.00;21.75;186.65
2019;03;10;23;00;-6.19;96.00;1020.00;0.00;20.36;188.13
2019;03;11;00;00;-6.83;96.00;1019.70;0.00;19.71;189.46
2019;03;11;01;00;-8.09;96.00;1019.60;0.00;19.35;189.64
2019;03;11;02;00;-9.09;96.00;1019.40;0.00;19.56;192.76
2019;03;11;03;00;-10.08;96.00;1019.40;0.00;19.93;196.80
2019;03;11;04;00;-11.83;99.00;1019.70;0.00;20.06;201.04
2019;03;11;05;00;-13.00;99.00;1019.60;0.00;19.49;205.14
2019;03;11;06;00;-12.61;85.00;1017.10;0.00;18.04;208.61
2019;03;11;07;00;-13.21;85.00;1016.60;0.00;18.68;207.55
2019;03;11;08;00;-13.14;85.00;1016.20;0.00;20.01;210.26
2019;03;11;09;00;-11.36;85.00;1015.40;0.00;21.18;211.80
2019;03;11;10;00;-9.09;87.00;1013.70;0.00;21.49;211.29
2019;03;11;11;00;-6.28;87.00;1011.80;0.00;23.04;208.97
2019;03;11;12;00;-4.51;88.00;1010.10;0.00;26.75;208.98
2019;03;11;13;00;-3.28;90.00;1008.70;0.00;29.48;208.44
2019;03;11;14;00;-2.31;90.00;1007.50;0.00;31.61;210.07
2019;03;11;15;00;-1.43;91.00;1006.30;0.00;33.25;213.52
2019;03;11;16;00;-0.69;92.00;1004.50;0.00;33.06;215.25
2019;03;11;17;00;-0.27;94.00;1003.50;0.00;32.78;218.76
2019;03;11;18;00;-0.50;94.00;1003.10;0.00;32.07;225.00
2019;03;11;19;00;0.31;91.00;1002.10;0.00;21.09;207.44
2019;03;11;20;00;0.01;92.00;1001.00;0.00;22.18;215.75
2019;03;11;21;00;-2.25;92.00;1001.60;0.00;24.29;230.41
2019;03;11;22;00;-2.41;94.00;1001.70;0.00;26.87;234.82
2019;03;11;23;00;-2.54;94.00;1001.20;0.00;29.35;236.50
2019;03;12;00;00;-0.52;92.00;1000.40;0.00;31.58;241.39
2019;03;12;01;00;-0.43;90.00;999.80;0.00;32.16;248.32
2019;03;12;02;00;-0.55;90.00;999.50;0.00;30.97;252.41
2019;03;12;03;00;-0.57;91.00;999.30;0.00;26.11;254.81
2019;03;12;04;00;-0.53;91.00;999.50;0.00;23.51;258.52
2019;03;12;05;00;-0.75;92.00;999.70;0.00;23.76;269.13
2019;03;12;06;00;-1.24;94.00;1000.30;0.00;21.54;279.62
2019;03;12;07;00;-1.51;95.00;1001.00;0.00;19.97;297.95
2019;03;12;08;00;-1.55;96.00;1001.50;0.00;17.07;312.44
2019;03;12;09;00;-0.29;95.00;1001.60;0.00;17.08;325.30
2019;03;12;10;00;0.55;93.00;1001.80;0.00;19.16;331.99
2019;03;12;11;00;0.88;92.00;1002.10;0.00;21.58;334.29
2019;03;12;12;00;1.03;91.00;1002.50;0.00;23.26;338.20
2019;03;12;13;00;1.00;88.00;1003.30;0.00;25.32;345.17
2019;03;12;14;00;0.93;86.00;1003.70;0.00;26.90;347.64
2019;03;12;15;00;0.85;82.00;1004.10;0.00;26.55;344.27
2019;03;12;16;00;0.73;81.00;1004.20;0.00;25.34;337.44
2019;03;12;17;00;0.54;82.00;1004.60;0.00;23.40;329.49
2019;03;12;18;00;0.24;86.00;1005.40;0.00;21.89;323.70
2019;03;12;19;00;-0.57;91.00;1006.10;0.00;20.70;319.94
2019;03;12;20;00;-1.43;95.00;1007.40;0.00;20.66;318.53
2019;03;12;21;00;-1.70;97.00;1008.50;0.00;22.26;320.91
2019;03;12;22;00;-1.59;97.00;1009.30;0.00;23.77;324.87
2019;03;12;23;00;-1.48;97.00;1010.00;0.00;24.58;328.17
This diff is collapsed.
LAT;;;;;48.3679
LON;;;;;14.5169
ASL;;;;;456.000
CITY;;;;;Hagenberg im Mühlkreis
DOMAIN;;;;;NEMS4
LEVEL;;;;;2 m above gnd
NAME;;;;;Temperature
UNIT;;;;;°C
AGGREGATION;;;;;
UTC_OFFSET;;;;;1
Year;Month;Day;Hour;Minute;Temperature [2 m above gnd]
2019;02;26;00;00;3.54
2019;02;26;01;00;3.13
2019;02;26;02;00;2.64
2019;02;26;03;00;1.97
2019;02;26;04;00;2.00
2019;02;26;05;00;2.44
2019;02;26;06;00;2.44
2019;02;26;07;00;1.40
2019;02;26;08;00;3.39
2019;02;26;09;00;6.27
2019;02;26;10;00;7.41
2019;02;26;11;00;10.10
2019;02;26;12;00;14.01
2019;02;26;13;00;13.79
2019;02;26;14;00;14.23
2019;02;26;15;00;14.14
2019;02;26;16;00;13.56
2019;02;26;17;00;12.56
2019;02;26;18;00;10.70
2019;02;26;19;00;9.85
2019;02;26;20;00;8.27
2019;02;26;21;00;7.60
2019;02;26;22;00;6.98
2019;02;26;23;00;5.91
2019;02;27;00;00;4.66
2019;02;27;01;00;3.25
2019;02;27;02;00;3.05
2019;02;27;03;00;2.21
2019;02;27;04;00;0.81
2019;02;27;05;00;0.89
2019;02;27;06;00;0.76
2019;02;27;07;00;0.70
2019;02;27;08;00;2.94
2019;02;27;09;00;5.95
2019;02;27;10;00;6.95
2019;02;27;11;00;7.83
2019;02;27;12;00;8.96
2019;02;27;13;00;10.92
2019;02;27;14;00;11.82
2019;02;27;15;00;12.44
2019;02;27;16;00;12.63
2019;02;27;17;00;11.45
2019;02;27;18;00;10.07
2019;02;27;19;00;9.49
2019;02;27;20;00;8.46
2019;02;27;21;00;7.02
2019;02;27;22;00;5.59
2019;02;27;23;00;5.24
2019;02;28;00;00;5.77
2019;02;28;01;00;5.51
2019;02;28;02;00;5.17
2019;02;28;03;00;4.98
2019;02;28;04;00;4.55
2019;02;28;05;00;4.28
2019;02;28;06;00;3.47
2019;02;28;07;00;2.78
2019;02;28;08;00;4.08
2019;02;28;09;00;7.35
2019;02;28;10;00;8.95
2019;02;28;11;00;10.06
2019;02;28;12;00;11.79
2019;02;28;13;00;13.16
2019;02;28;14;00;13.90
2019;02;28;15;00;13.95
2019;02;28;16;00;13.47
2019;02;28;17;00;12.75
2019;02;28;18;00;11.58
2019;02;28;19;00;11.55
2019;02;28;20;00;10.94
2019;02;28;21;00;10.47
2019;02;28;22;00;9.77
2019;02;28;23;00;8.93
2019;03;01;00;00;8.35
2019;03;01;01;00;7.76
2019;03;01;02;00;7.17
2019;03;01;03;00;6.43
2019;03;01;04;00;5.96
2019;03;01;05;00;5.64
2019;03;01;06;00;5.34
2019;03;01;07;00;5.55
2019;03;01;08;00;6.82
2019;03;01;09;00;8.34
2019;03;01;10;00;8.42
2019;03;01;11;00;8.40
2019;03;01;12;00;8.81
2019;03;01;13;00;9.20
2019;03;01;14;00;9.40
2019;03;01;15;00;9.23
2019;03;01;16;00;9.18
2019;03;01;17;00;8.66
2019;03;01;18;00;6.87
2019;03;01;19;00;6.21
2019;03;01;20;00;6.24
2019;03;01;21;00;5.62
2019;03;01;22;00;5.23
2019;03;01;23;00;4.64
2019;03;02;00;00;4.51
2019;03;02;01;00;4.13
2019;03;02;02;00;3.94
2019;03;02;03;00;3.89
2019;03;02;04;00;5.02
2019;03;02;05;00;4.40
2019;03;02;06;00;5.10
2019;03;02;07;00;5.04
2019;03;02;08;00;5.74
2019;03;02;09;00;6.26
2019;03;02;10;00;6.99
2019;03;02;11;00;7.43
2019;03;02;12;00;6.39
2019;03;02;13;00;7.49
2019;03;02;14;00;7.31
2019;03;02;15;00;7.32
2019;03;02;16;00;7.09
2019;03;02;17;00;6.75
2019;03;02;18;00;4.45
2019;03;02;19;00;4.59
2019;03;02;20;00;3.60
2019;03;02;21;00;3.99
2019;03;02;22;00;4.27
2019;03;02;23;00;3.96
2019;03;03;00;00;4.11
2019;03;03;01;00;3.66
2019;03;03;02;00;3.60
2019;03;03;03;00;4.14
2019;03;03;04;00;3.75
2019;03;03;05;00;3.13
2019;03;03;06;00;3.55
2019;03;03;07;00;3.44
2019;03;03;08;00;5.75
2019;03;03;09;00;7.06
2019;03;03;10;00;8.69
2019;03;03;11;00;9.78
2019;03;03;12;00;10.61
2019;03;03;13;00;12.19
2019;03;03;14;00;12.90
2019;03;03;15;00;13.17
2019;03;03;16;00;13.16
2019;03;03;17;00;12.36
2019;03;03;18;00;10.90
2019;03;03;19;00;9.83
2019;03;03;20;00;8.92
2019;03;03;21;00;8.45
2019;03;03;22;00;7.95
2019;03;03;23;00;7.51
2019;03;04;00;00;6.93
2019;03;04;01;00;6.71
2019;03;04;02;00;6.56
2019;03;04;03;00;6.22
2019;03;04;04;00;5.89
2019;03;04;05;00;6.09
2019;03;04;06;00;5.94
2019;03;04;07;00;5.68
2019;03;04;08;00;7.54
2019;03;04;09;00;9.93
2019;03;04;10;00;11.93
2019;03;04;11;00;14.56
2019;03;04;12;00;16.68
2019;03;04;13;00;16.38
2019;03;04;14;00;15.38
2019;03;04;15;00;13.66
2019;03;04;16;00;12.19
2019;03;04;17;00;10.40
2019;03;04;18;00;9.64
2019;03;04;19;00;9.21
2019;03;04;20;00;8.54
2019;03;04;21;00;7.41
2019;03;04;22;00;6.23
2019;03;04;23;00;4.94
2019;03;05;00;00;4.45
2019;03;05;01;00;3.59
2019;03;05;02;00;3.71
2019;03;05;03;00;3.66
2019;03;05;04;00;3.29
2019;03;05;05;00;2.58
2019;03;05;06;00;1.86
2019;03;05;07;00;1.73
2019;03;05;08;00;2.91
2019;03;05;09;00;2.81
2019;03;05;10;00;4.29
2019;03;05;11;00;4.58
2019;03;05;12;00;5.20
2019;03;05;13;00;7.35
2019;03;05;14;00;8.96
2019;03;05;15;00;9.19
2019;03;05;16;00;8.90
2019;03;05;17;00;8.30
2019;03;05;18;00;6.58
2019;03;05;19;00;7.31
2019;03;05;20;00;6.55
2019;03;05;21;00;3.45
2019;03;05;22;00;1.70
2019;03;05;23;00;0.79
2019;03;06;00;00;0.34
2019;03;06;01;00;0.99
2019;03;06;02;00;0.23
2019;03;06;03;00;-0.52
2019;03;06;04;00;0.40
2019;03;06;05;00;0.84
2019;03;06;06;00;0.85
2019;03;06;07;00;1.19
2019;03;06;08;00;2.52
2019;03;06;09;00;4.12
2019;03;06;10;00;6.87
2019;03;06;11;00;9.39
2019;03;06;12;00;10.87
2019;03;06;13;00;12.65
2019;03;06;14;00;13.15
2019;03;06;15;00;13.89
2019;03;06;16;00;13.23
2019;03;06;17;00;12.25
2019;03;06;18;00;10.02
2019;03;06;19;00;8.47
2019;03;06;20;00;6.56
2019;03;06;21;00;5.44
2019;03;06;22;00;4.72
2019;03;06;23;00;3.95
2019;03;07;00;00;3.81
2019;03;07;01;00;4.04
2019;03;07;02;00;4.57
2019;03;07;03;00;4.63
2019;03;07;04;00;3.82
2019;03;07;05;00;3.14
2019;03;07;06;00;3.50
2019;03;07;07;00;5.34
2019;03;07;08;00;8.32
2019;03;07;09;00;9.26
2019;03;07;10;00;9.91
2019;03;07;11;00;11.97
2019;03;07;12;00;15.04
2019;03;07;13;00;15.48
2019;03;07;14;00;16.01
2019;03;07;15;00;15.19
2019;03;07;16;00;12.13
2019;03;07;17;00;9.55
2019;03;07;18;00;8.66
2019;03;07;19;00;7.73
2019;03;07;20;00;5.88
2019;03;07;21;00;7.23
2019;03;07;22;00;7.07
2019;03;07;23;00;6.79
2019;03;08;00;00;5.39
2019;03;08;01;00;5.19
2019;03;08;02;00;4.99
2019;03;08;03;00;4.62
2019;03;08;04;00;4.15
2019;03;08;05;00;3.60
2019;03;08;06;00;3.12
2019;03;08;07;00;2.13
2019;03;08;08;00;4.49
2019;03;08;09;00;7.13
2019;03;08;10;00;9.01
2019;03;08;11;00;9.86
2019;03;08;12;00;10.63
2019;03;08;13;00;11.58
2019;03;08;14;00;11.66
2019;03;08;15;00;11.53
2019;03;08;16;00;10.85
2019;03;08;17;00;9.72
2019;03;08;18;00;7.52
2019;03;08;19;00;5.92
2019;03;08;20;00;4.79
2019;03;08;21;00;3.98
2019;03;08;22;00;3.30
2019;03;08;23;00;2.94
2019;03;09;00;00;2.23
2019;03;09;01;00;1.85
2019;03;09;02;00;1.57
2019;03;09;03;00;1.45
2019;03;09;04;00;1.25
2019;03;09;05;00;0.91
2019;03;09;06;00;0.93
2019;03;09;07;00;1.38
2019;03;09;08;00;2.97
2019;03;09;09;00;4.56
2019;03;09;10;00;6.43
2019;03;09;11;00;9.89
2019;03;09;12;00;10.76
2019;03;09;13;00;8.33
2019;03;09;14;00;10.36
2019;03;09;15;00;11.10
2019;03;09;16;00;10.76
2019;03;09;17;00;10.67
2019;03;09;18;00;9.07
2019;03;09;19;00;8.34
2019;03;09;20;00;9.10
2019;03;09;21;00;8.15
2019;03;09;22;00;7.78
2019;03;09;23;00;7.36
2019;03;10;00;00;7.24
2019;03;10;01;00;6.59
2019;03;10;02;00;6.29
2019;03;10;03;00;5.77
2019;03;10;04;00;5.17
2019;03;10;05;00;4.27
2019;03;10;06;00;5.03
2019;03;10;07;00;5.07
2019;03;10;08;00;6.89
2019;03;10;09;00;7.57
2019;03;10;10;00;8.06
2019;03;10;11;00;8.68
2019;03;10;12;00;9.46
2019;03;10;13;00;11.06
2019;03;10;14;00;11.95
2019;03;10;15;00;12.80
2019;03;10;16;00;12.48
2019;03;10;17;00;11.78
2019;03;10;18;00;10.16
2019;03;10;19;00;9.34
2019;03;10;20;00;8.85
2019;03;10;21;00;8.41
2019;03;10;22;00;7.61
2019;03;10;23;00;6.30
2019;03;11;00;00;4.91
2019;03;11;01;00;3.77
2019;03;11;02;00;3.54
2019;03;11;03;00;2.44
2019;03;11;04;00;1.68
2019;03;11;05;00;1.06
2019;03;11;06;00;0.57
2019;03;11;07;00;0.71
2019;03;11;08;00;1.90
2019;03;11;09;00;2.98
2019;03;11;10;00;2.86
2019;03;11;11;00;3.33
2019;03;11;12;00;2.43
2019;03;11;13;00;4.02
2019;03;11;14;00;4.71
2019;03;11;15;00;4.25
2019;03;11;16;00;4.00
2019;03;11;17;00;2.53
2019;03;11;18;00;1.95
2019;03;11;19;00;1.11
2019;03;11;20;00;0.99
2019;03;11;21;00;1.49
2019;03;11;22;00;0.91
2019;03;11;23;00;0.25
2019;03;12;00;00;-0.13
2019;03;12;01;00;-0.42
2019;03;12;02;00;0.87
2019;03;12;03;00;0.46
2019;03;12;04;00;0.03
2019;03;12;05;00;-0.03
2019;03;12;06;00;-0.24
2019;03;12;07;00;0.95
2019;03;12;08;00;2.85
2019;03;12;09;00;3.70
2019;03;12;10;00;4.02
2019;03;12;11;00;4.37
2019;03;12;12;00;5.20
2019;03;12;13;00;5.97
2019;03;12;14;00;6.44
2019;03;12;15;00;6.12
2019;03;12;16;00;6.23
2019;03;12;17;00;6.00
2019;03;12;18;00;3.93
2019;03;12;19;00;3.09
2019;03;12;20;00;1.18
2019;03;12;21;00;0.73
2019;03;12;22;00;0.73
2019;03;12;23;00;1.05
Supports Markdown
0% or .
You are about to add 0 people to the discussion. Proceed with caution.
Finish editing this message first!
Please register or to comment